Time;durP1;ratioP1;P1;durP2;ratioP2;P2;SDS_P1;SDS_P2;PMS_P1;PMS_P2;Temp;Humidity;BMP_temperature;BMP_pressure;BME280_temperature;BME280_humidity;BME280_pressure;Samples;Min_cycle;Max_cycle;Signal;HPM_P1;HPM_P2
2022/05/06 00:03:43;;;;;;;6.93;3.63;;;;;;;5.50;100.00;97233.28;10289605;28;20777;-55
2022/05/06 00:08:44;;;;;;;5.70;4.43;;;;;;;5.45;100.00;97232.78;10289868;28;20655;-56
2022/05/06 00:13:44;;;;;;;7.20;3.87;;;;;;;5.43;100.00;97214.69;10289566;28;20985;-55
2022/05/06 00:18:45;;;;;;;6.23;3.70;;;;;;;5.54;100.00;97232.97;10289276;28;20588;-54
2022/05/06 00:23:45;;;;;;;6.30;4.03;;;;;;;5.53;100.00;97226.09;10289507;28;20700;-54
2022/05/06 00:28:46;;;;;;;6.70;3.70;;;;;;;5.47;100.00;97215.31;10290904;28;20222;-58
2022/05/06 00:33:48;;;;;;;8.13;3.97;;;;;;;5.36;100.00;97216.94;10292847;28;20676;-58
2022/05/06 00:38:48;;;;;;;7.73;4.77;;;;;;;5.31;100.00;97211.25;10288663;28;20635;-57
2022/05/06 00:43:48;;;;;;;7.57;4.50;;;;;;;5.34;100.00;97228.34;10289165;28;20253;-56
2022/05/06 00:48:49;;;;;;;8.33;4.00;;;;;;;5.28;100.00;97214.06;10288388;28;20215;-54
2022/05/06 00:53:50;;;;;;;4.93;3.67;;;;;;;5.31;100.00;97237.22;10288867;28;20190;-57
2022/05/06 00:58:52;;;;;;;8.93;4.03;;;;;;;5.35;100.00;97228.25;10288015;28;20810;-58
2022/05/06 01:03:53;;;;;;;6.00;4.00;;;;;;;5.34;100.00;97229.22;10270273;28;20190;-58
2022/05/06 01:08:54;;;;;;;9.87;4.00;;;;;;;5.30;100.00;97232.16;10271898;28;20257;-56
2022/05/06 01:13:56;;;;;;;4.03;3.27;;;;;;;5.28;100.00;97236.59;10270609;28;20195;-58
2022/05/06 01:19:00;;;;;;;7.17;4.17;;;;;;;5.31;100.00;97232.03;10270878;28;20716;-56
2022/05/06 01:24:03;;;;;;;6.33;3.80;;;;;;;5.26;100.00;97236.72;10270903;28;20199;-55
2022/05/06 01:29:04;;;;;;;7.73;3.80;;;;;;;5.28;100.00;97244.38;10290524;28;20769;-59
2022/05/06 01:34:05;;;;;;;7.70;3.80;;;;;;;5.25;100.00;97247.22;10295766;28;20293;-57
2022/05/06 01:39:06;;;;;;;7.00;4.30;;;;;;;5.33;100.00;97252.69;10261306;28;20722;-54
2022/05/06 01:44:09;;;;;;;7.90;3.67;;;;;;;5.32;100.00;97257.06;10261545;28;20199;-56
2022/05/06 01:49:10;;;;;;;5.80;4.27;;;;;;;5.32;100.00;97253.63;10277125;28;20207;-58
2022/05/06 01:54:12;;;;;;;5.87;3.60;;;;;;;5.26;100.00;97249.69;10276999;28;20190;-55
2022/05/06 01:59:14;;;;;;;4.40;3.80;;;;;;;5.24;100.00;97241.19;10261062;28;20305;-54
2022/05/06 02:09:34;;;;;;;10.20;3.77;;;;;;;5.32;100.00;97246.66;10276821;28;20242;-54
2022/05/06 02:14:38;;;;;;;11.63;3.53;;;;;;;5.35;100.00;97251.63;10277412;28;20257;-55
2022/05/06 02:19:57;;;;;;;6.10;3.80;;;;;;;5.41;100.00;97239.16;10293978;28;20230;-54
2022/05/06 02:25:26;;;;;;;5.27;3.83;;;;;;;5.39;100.00;97238.41;10276843;28;20213;-56
2022/05/06 02:35:54;;;;;;;9.53;4.30;;;;;;;5.20;100.00;97231.97;10276305;28;20194;-60
2022/05/06 02:41:02;;;;;;;7.50;4.30;;;;;;;5.14;100.00;97235.81;10275531;28;20225;-59
2022/05/06 02:46:08;;;;;;;6.33;4.07;;;;;;;5.16;100.00;97243.50;10275737;28;20661;-56
2022/05/06 02:51:09;;;;;;;6.37;3.60;;;;;;;5.16;100.00;97236.56;10293323;28;20261;-54
2022/05/06 02:56:12;;;;;;;7.80;3.60;;;;;;;5.21;100.00;97220.63;10275107;28;20218;-56
2022/05/06 03:01:21;;;;;;;8.23;3.70;;;;;;;5.21;100.00;97224.97;10274666;28;20218;-54
2022/05/06 03:06:25;;;;;;;8.47;4.37;;;;;;;5.20;100.00;97237.16;10238966;29;20207;-57
2022/05/06 03:11:27;;;;;;;8.57;4.27;;;;;;;5.12;100.00;97235.09;10234970;28;20262;-58
2022/05/06 03:16:33;;;;;;;15.70;8.77;;;;;;;5.06;100.00;97234.72;10234878;28;20611;-55
2022/05/06 03:21:34;;;;;;;38.83;18.13;;;;;;;4.96;100.00;97239.72;10321710;23;20334;-55
2022/05/06 03:26:34;;;;;;;7.07;5.00;;;;;;;4.98;100.00;97241.28;10412695;28;20195;-58
2022/05/06 03:31:35;;;;;;;9.87;5.53;;;;;;;4.91;100.00;97234.84;10411528;28;20208;-55
2022/05/06 03:36:38;;;;;;;25.80;15.40;;;;;;;4.86;100.00;97234.34;10394849;28;20193;-57
2022/05/06 03:41:44;;;;;;;24.50;11.50;;;;;;;4.86;100.00;97244.75;10378655;28;20216;-56
2022/05/06 03:46:45;;;;;;;9.93;5.57;;;;;;;4.89;100.00;97249.72;10394652;28;20195;-58
2022/05/06 03:51:47;;;;;;;17.73;11.17;;;;;;;4.84;100.00;97249.22;10410990;28;20295;-59
2022/05/06 03:56:52;;;;;;;29.33;13.67;;;;;;;4.89;100.00;97257.50;10394729;28;20195;-57
2022/05/06 04:01:54;;;;;;;14.93;7.67;;;;;;;4.95;100.00;97259.66;10393658;28;20221;-58
2022/05/06 04:07:01;;;;;;;14.93;7.77;;;;;;;5.06;100.00;97261.50;10394154;28;20200;-58
2022/05/06 04:12:04;;;;;;;12.47;4.60;;;;;;;5.04;100.00;97266.00;10394115;28;20231;-58
2022/05/06 04:17:04;;;;;;;5.80;4.13;;;;;;;5.05;100.00;97275.41;10409564;28;20215;-57
2022/05/06 04:27:34;;;;;;;6.50;4.37;;;;;;;5.11;100.00;97272.38;10393584;28;20212;-56
2022/05/06 04:32:35;;;;;;;7.80;4.93;;;;;;;5.19;100.00;97277.03;10411498;28;20257;-52
2022/05/06 04:37:35;;;;;;;9.20;4.87;;;;;;;5.24;100.00;97290.56;10393565;28;20219;-59
2022/05/06 04:42:37;;;;;;;11.33;5.20;;;;;;;5.40;100.00;97289.44;10392946;28;20224;-56
2022/05/06 04:47:38;;;;;;;10.90;6.40;;;;;;;5.66;100.00;97275.41;10393327;28;20184;-59
2022/05/06 04:52:40;;;;;;;13.13;6.70;;;;;;;5.78;100.00;97281.47;10392789;28;20636;-55
2022/05/06 04:57:40;;;;;;;5.97;4.53;;;;;;;5.80;100.00;97284.78;10392952;28;20193;-52
2022/05/06 05:02:41;;;;;;;10.97;5.23;;;;;;;5.92;100.00;97287.44;10395239;28;20307;-53
2022/05/06 05:07:42;;;;;;;14.50;5.27;;;;;;;6.16;100.00;97285.66;10400881;28;20246;-53
2022/05/06 05:12:45;;;;;;;15.83;5.13;;;;;;;6.45;100.00;97286.97;10401154;28;20209;-53
2022/05/06 05:17:46;;;;;;;8.87;3.83;;;;;;;6.68;100.00;97300.88;10400265;28;20250;-59
2022/05/06 05:22:47;;;;;;;8.33;4.83;;;;;;;6.86;100.00;97301.22;10418087;28;20762;-53
2022/05/06 05:27:50;;;;;;;9.07;4.30;;;;;;;7.20;100.00;97296.81;10400531;28;20200;-52
2022/05/06 05:32:59;;;;;;;7.53;3.90;;;;;;;7.51;100.00;97297.00;10400188;28;20266;-59
2022/05/06 05:38:01;;;;;;;7.10;4.07;;;;;;;7.75;100.00;97286.38;10399936;28;20191;-58
2022/05/06 05:43:03;;;;;;;10.60;4.20;;;;;;;7.83;100.00;97291.78;10399527;28;20231;-56
2022/05/06 05:48:22;;;;;;;8.23;4.23;;;;;;;8.13;100.00;97289.38;10399537;28;20195;-58
2022/05/06 05:53:29;;;;;;;8.87;4.00;;;;;;;8.50;100.00;97284.56;10399256;28;20201;-56
2022/05/06 05:58:34;;;;;;;6.83;4.00;;;;;;;8.87;99.29;97268.38;10399177;28;20195;-56
2022/05/06 06:03:36;;;;;;;7.70;3.80;;;;;;;9.40;98.39;97279.53;10398234;28;20224;-60
2022/05/06 06:08:39;;;;;;;10.97;4.30;;;;;;;10.11;94.97;97271.44;10383295;28;20837;-56
2022/05/06 06:13:42;;;;;;;10.70;4.10;;;;;;;10.70;89.92;97253.81;10373087;28;20220;-59
2022/05/06 06:18:47;;;;;;;5.60;3.67;;;;;;;11.28;83.88;97222.19;10361706;28;20189;-59
2022/05/06 06:23:51;;;;;;;8.38;3.95;;;;;;;11.83;79.00;97187.09;10359750;28;20257;-59
2022/05/06 06:28:52;;;;;;;10.63;4.10;;;;;;;12.79;73.20;97136.25;10363086;28;20197;-59
2022/05/06 06:33:53;;;;;;;5.15;3.50;;;;;;;12.85;73.41;97175.03;10374838;28;20223;-59
2022/05/06 06:39:02;;;;;;;5.63;3.95;;;;;;;13.44;66.85;97066.31;10356829;28;20691;-58
2022/05/06 06:44:07;;;;;;;5.75;3.95;;;;;;;14.06;67.84;97110.47;10356697;28;20324;-58
2022/05/06 06:49:17;;;;;;;10.15;4.35;;;;;;;14.28;65.73;97101.00;10379474;28;20219;-62
2022/05/06 06:54:29;;;;;;;8.35;3.80;;;;;;;15.13;62.38;97044.03;10392815;28;20203;-57
2022/05/06 06:59:29;;;;;;;6.75;3.97;;;;;;;15.33;61.37;97045.19;10412409;28;20225;-58
2022/05/06 07:04:29;;;;;;;8.30;3.92;;;;;;;15.60;61.87;97074.63;10395094;28;20193;-57
2022/05/06 07:14:49;;;;;;;7.22;4.28;;;;;;;16.40;58.53;97048.53;10412243;28;20279;-57
2022/05/06 07:19:50;;;;;;;9.68;4.47;;;;;;;16.19;58.78;97065.97;10409875;28;20216;-57
2022/05/06 07:24:50;;;;;;;11.10;5.18;;;;;;;16.26;59.72;97089.84;10411477;28;20196;-60
2022/05/06 07:29:51;;;;;;;8.63;4.88;;;;;;;16.39;58.81;97081.28;10410713;28;20234;-58
2022/05/06 07:34:51;;;;;;;12.18;5.10;;;;;;;17.24;58.38;97106.28;10408323;28;20693;-61
2022/05/06 07:39:51;;;;;;;12.32;5.07;;;;;;;16.81;59.85;97118.59;10411195;28;20228;-61
2022/05/06 07:44:52;;;;;;;8.40;5.07;;;;;;;17.67;59.70;97141.69;10411171;28;20200;-60
2022/05/06 07:49:52;;;;;;;11.80;5.72;;;;;;;17.74;58.41;97106.28;10411161;28;20216;-58
2022/05/06 07:54:52;;;;;;;12.35;5.75;;;;;;;17.45;60.61;97142.53;10410413;28;20211;-58
2022/05/06 07:59:53;;;;;;;12.40;5.65;;;;;;;16.32;64.16;97204.63;10410447;28;20310;-55
2022/05/06 08:04:53;;;;;;;14.02;5.90;;;;;;;17.23;63.34;97199.97;10407826;28;20200;-54
2022/05/06 08:09:54;;;;;;;12.02;7.13;;;;;;;17.17;61.76;97160.19;10409009;28;20292;-55
2022/05/06 08:14:54;;;;;;;12.63;6.72;;;;;;;17.54;61.03;97150.34;10410069;28;20609;-57
2022/05/06 08:19:55;;;;;;;8.43;6.13;;;;;;;17.91;61.43;97180.25;10409919;28;20596;-57
2022/05/06 08:24:56;;;;;;;9.00;6.70;;;;;;;17.18;64.69;97244.72;10410128;28;20197;-56
2022/05/06 08:29:57;;;;;;;12.50;6.80;;;;;;;17.68;60.53;97159.25;10408356;28;20333;-59
2022/05/06 08:34:57;;;;;;;12.25;6.85;;;;;;;17.48;61.85;97195.13;10410151;28;20746;-57
2022/05/06 08:39:57;;;;;;;12.35;6.38;;;;;;;18.16;58.14;97117.00;10404130;28;20581;-60
2022/05/06 08:55:36;;;;;;;12.48;5.93;;;;;;;18.81;57.10;97133.47;10383628;28;20201;-53
2022/05/06 09:00:36;;;;;;;9.38;5.88;;;;;;;17.91;59.66;97180.25;10365609;28;20221;-58
2022/05/06 09:05:52;;;;;;;9.45;6.20;;;;;;;17.93;58.77;97168.47;10365499;28;20190;-59
2022/05/06 09:11:04;;;;;;;13.45;6.28;;;;;;;18.13;58.20;97155.34;10388330;28;20307;-61
2022/05/06 09:21:41;;;;;;;11.65;6.47;;;;;;;19.09;54.34;97086.59;10405774;28;20233;-57
2022/05/06 09:27:01;;;;;;;12.93;6.10;;;;;;;18.75;56.34;97134.25;10386839;28;20231;-59
2022/05/06 09:32:24;;;;;;;9.82;5.68;;;;;;;19.58;53.69;97088.06;10401973;28;20219;-60
2022/05/06 09:37:35;;;;;;;13.43;6.03;;;;;;;19.35;53.68;97075.19;10395132;28;20405;-59
2022/05/06 09:42:39;;;;;;;12.05;5.88;;;;;;;18.65;54.67;97093.97;10389125;28;20312;-59
2022/05/06 09:47:40;;;;;;;14.85;6.85;;;;;;;17.37;59.74;97194.81;10384390;28;20200;-57
2022/05/06 09:52:41;;;;;;;11.48;5.63;;;;;;;18.66;56.47;97132.78;10389942;28;20213;-60
2022/05/06 09:57:42;;;;;;;10.50;6.35;;;;;;;18.99;54.20;97084.31;10404421;28;20189;-56
2022/05/06 10:02:42;;;;;;;9.98;5.82;;;;;;;19.08;54.51;97085.75;10371384;28;20224;-60
2022/05/06 10:07:43;;;;;;;8.00;4.93;;;;;;;20.00;50.33;96997.44;10411744;28;20216;-58
2022/05/06 10:12:49;;;;;;;15.55;5.80;;;;;;;20.48;49.89;97018.34;10396640;28;20219;-59
2022/05/06 10:17:56;;;;;;;9.40;5.70;;;;;;;19.64;51.04;97026.13;10375284;28;20283;-57
2022/05/06 10:23:09;;;;;;;8.55;5.15;;;;;;;20.95;47.77;96971.00;10411071;28;20688;-58
2022/05/06 10:34:17;;;;;;;11.52;5.43;;;;;;;21.59;44.98;96912.22;10411364;28;20807;-61
2022/05/06 10:39:25;;;;;;;8.27;4.68;;;;;;;21.78;44.91;96925.56;10360525;28;20258;-59
2022/05/06 10:44:48;;;;;;;9.50;5.22;;;;;;;21.39;45.39;96923.06;10409586;28;20208;-60
2022/05/06 10:49:52;;;;;;;8.65;4.43;;;;;;;22.49;44.67;96948.09;10410277;28;20215;-60
2022/05/06 10:54:55;;;;;;;9.27;5.90;;;;;;;22.46;43.02;96886.31;10410285;28;20196;-60
2022/05/06 11:00:08;;;;;;;9.55;5.45;;;;;;;20.62;44.07;96865.50;10409767;28;20298;-59
2022/05/06 11:05:12;;;;;;;7.38;4.47;;;;;;;21.64;43.43;96884.88;10410305;28;20188;-60
2022/05/06 11:10:19;;;;;;;8.75;4.13;;;;;;;21.55;43.11;96868.38;10409229;28;20211;-59
2022/05/06 11:15:39;;;;;;;8.13;4.25;;;;;;;23.21;41.07;96879.59;10409374;28;20556;-60
2022/05/06 11:20:40;;;;;;;7.93;4.32;;;;;;;22.87;40.86;96850.75;10407075;28;20293;-59
2022/05/06 11:25:44;;;;;;;6.03;3.42;;;;;;;23.39;38.01;96779.72;10409322;28;20250;-60
2022/05/06 11:30:46;;;;;;;8.05;3.03;;;;;;;23.20;38.95;96811.97;10408732;28;20223;-61
2022/05/06 11:35:47;;;;;;;5.05;2.92;;;;;;;23.73;35.95;96724.47;10408587;28;20246;-60
2022/05/06 11:40:48;;;;;;;7.47;3.08;;;;;;;22.87;34.66;96639.72;10408840;28;20569;-60
2022/05/06 11:51:16;;;;;;;5.03;3.60;;;;;;;23.22;39.06;96817.09;10406889;28;20224;-61
2022/05/06 11:56:24;;;;;;;8.50;4.63;;;;;;;23.19;36.51;96716.78;10390197;28;20275;-61
2022/05/06 12:01:29;;;;;;;7.70;4.90;;;;;;;23.58;36.09;96722.31;10407437;28;20703;-61
2022/05/06 12:06:31;;;;;;;16.45;4.88;;;;;;;22.97;39.15;96805.56;10407577;28;20659;-61
2022/05/06 12:11:32;;;;;;;9.98;4.13;;;;;;;23.75;38.56;96813.34;10406428;28;20307;-61
2022/05/06 12:16:34;;;;;;;9.82;4.50;;;;;;;22.68;39.47;96801.97;10407417;28;20212;-60
2022/05/06 12:21:34;;;;;;;7.85;4.72;;;;;;;22.20;38.96;96762.88;10405764;28;20232;-60
2022/05/06 12:26:36;;;;;;;9.35;4.70;;;;;;;23.62;38.34;96797.56;10406381;28;20207;-60
2022/05/06 12:31:37;;;;;;;8.02;4.60;;;;;;;24.65;35.70;96737.78;10406969;28;20243;-62
2022/05/06 12:36:38;;;;;;;5.85;3.78;;;;;;;25.70;36.03;96802.16;10406306;28;20266;-62
2022/05/06 12:41:39;;;;;;;10.65;4.30;;;;;;;25.90;34.94;96763.19;10406724;28;20576;-61
2022/05/06 12:46:41;;;;;;;6.43;3.83;;;;;;;24.63;37.13;96794.28;10406170;28;20223;-59
2022/05/06 12:52:23;;;;;;;9.10;3.88;;;;;;;23.78;37.24;96771.91;10406872;28;20205;-60
2022/05/06 12:58:30;;;;;;;;;;;;;;;;;;;;;
2022/05/06 13:03:22;;;;;;;7.88;4.30;;;;;;;23.44;35.96;96712.97;10391816;28;20220;-61
2022/05/06 13:08:24;;;;;;;6.60;3.65;;;;;;;25.60;35.78;96781.38;10406079;28;20197;-63
2022/05/06 13:13:25;;;;;;;6.22;3.25;;;;;;;25.67;33.58;96702.56;10405560;28;20208;-61
2022/05/06 13:18:26;;;;;;;5.15;3.42;;;;;;;25.01;35.94;96765.88;10406285;28;20208;-62
2022/05/06 13:23:26;;;;;;;7.57;3.40;;;;;;;25.78;34.23;96733.81;10407389;28;20228;-63
2022/05/06 13:28:26;;;;;;;6.68;3.40;;;;;;;26.51;33.31;96704.63;10412746;28;20197;-62
2022/05/06 13:33:27;;;;;;;11.90;3.63;;;;;;;25.82;33.94;96713.47;10413353;28;20741;-63
2022/05/06 13:38:27;;;;;;;8.13;3.83;;;;;;;25.97;34.38;96732.38;10413783;28;20451;-61
2022/05/06 13:43:28;;;;;;;6.32;3.55;;;;;;;24.79;35.88;96738.25;10413108;28;20299;-61
2022/05/06 13:48:28;;;;;;;5.45;3.35;;;;;;;24.59;38.17;96813.78;10412821;28;20176;-62
2022/05/06 13:53:28;;;;;;;10.27;3.53;;;;;;;23.01;39.76;96789.88;10412852;28;20212;-62
2022/05/06 14:03:48;;;;;;;5.70;4.00;;;;;;;23.82;38.46;96779.22;10412277;28;20232;-62
2022/05/06 14:08:48;;;;;;;9.27;4.32;;;;;;;24.11;38.35;96805.19;10412111;28;20655;-62
2022/05/06 14:13:48;;;;;;;7.00;3.90;;;;;;;23.80;39.25;96800.06;10411511;28;20209;-62
2022/05/06 14:18:49;;;;;;;8.82;3.60;;;;;;;25.16;35.99;96749.19;10411385;28;20250;-62
2022/05/06 14:23:49;;;;;;;7.88;4.00;;;;;;;25.09;36.92;96788.78;10411404;28;20240;-62
2022/05/06 14:28:50;;;;;;;8.40;3.53;;;;;;;25.57;36.23;96767.66;10409707;28;20204;-63
2022/05/06 14:33:50;;;;;;;10.65;3.95;;;;;;;22.81;40.14;96792.91;10416203;28;20213;-62
2022/05/06 14:38:52;;;;;;;6.00;4.43;;;;;;;24.55;37.45;96766.00;10382344;28;20296;-62
2022/05/06 14:43:52;;;;;;;6.35;3.65;;;;;;;25.88;34.13;96701.72;10389193;28;20221;-61
2022/05/06 14:48:53;;;;;;;9.43;4.00;;;;;;;25.73;34.32;96712.31;10388269;28;20642;-61
2022/05/06 14:53:53;;;;;;;11.00;4.15;;;;;;;22.73;38.97;96737.97;10386549;28;20808;-61
2022/05/06 14:58:53;;;;;;;6.47;5.75;;;;;;;23.23;39.86;96806.16;10406230;28;20273;-62
2022/05/06 15:03:54;;;;;;;6.20;3.83;;;;;;;24.31;36.62;96716.38;10411089;28;20229;-63
2022/05/06 15:08:54;;;;;;;8.75;4.05;;;;;;;24.74;36.49;96731.75;10412746;28;20458;-61
2022/05/06 15:13:54;;;;;;;6.53;4.00;;;;;;;26.31;34.94;96745.59;10409623;28;20291;-61
2022/05/06 15:24:14;;;;;;;6.78;3.72;;;;;;;26.69;31.57;96636.25;10409091;28;20487;-60
2022/05/06 15:29:14;;;;;;;8.70;5.03;;;;;;;28.37;30.82;96681.75;10408919;28;20216;-62
2022/05/06 15:34:14;;;;;;;6.83;4.13;;;;;;;23.82;37.71;96755.13;10407489;28;20546;-60
2022/05/06 15:39:15;;;;;;;8.37;3.47;;;;;;;22.68;39.23;96743.22;10408835;28;20472;-63
2022/05/06 15:44:15;;;;;;;8.75;3.95;;;;;;;21.37;41.79;96790.03;10407156;28;20502;-62
2022/05/06 15:49:18;;;;;;;7.20;3.65;;;;;;;21.37;41.66;96795.34;10407372;28;20651;-62
2022/05/06 15:54:18;;;;;;;5.75;3.53;;;;;;;20.73;42.64;96801.97;10407737;28;20754;-62
2022/05/06 15:59:19;;;;;;;6.07;3.70;;;;;;;20.07;43.58;96809.41;10387781;28;20201;-59
2022/05/06 16:04:19;;;;;;;7.63;3.80;;;;;;;19.94;43.73;96805.81;10366533;28;20240;-61
2022/05/06 16:09:19;;;;;;;9.57;3.20;;;;;;;20.53;43.58;96823.41;10401817;28;20290;-60
2022/05/06 16:19:39;;;;;;;5.28;3.10;;;;;;;20.41;44.12;96852.56;10407707;28;20669;-61
2022/05/06 16:24:39;;;;;;;8.13;3.60;;;;;;;19.81;44.92;96848.41;10396879;28;20205;-58
2022/05/06 16:29:40;;;;;;;9.05;4.50;;;;;;;19.25;47.88;96909.06;10396339;28;20189;-59
2022/05/06 16:39:59;;;;;;;9.45;3.05;;;;;;;18.07;49.40;96912.22;10407427;28;20231;-59
2022/05/06 16:44:59;;;;;;;10.75;3.47;;;;;;;18.25;50.24;96945.28;10407658;28;20215;-62
2022/05/06 16:50:00;;;;;;;7.53;3.15;;;;;;;18.74;47.00;96883.13;10427775;22;20240;-59
2022/05/06 16:55:00;;;;;;;5.20;2.83;;;;;;;18.95;46.26;96865.41;10408385;28;20196;-60
2022/05/06 17:00:01;;;;;;;7.45;2.85;;;;;;;18.79;48.16;96912.53;10412410;28;20223;-60
2022/05/06 17:05:01;;;;;;;7.53;3.50;;;;;;;18.55;49.26;96940.47;10415742;28;20571;-60
2022/05/06 17:10:07;;;;;;;5.65;2.90;;;;;;;18.33;48.84;96918.56;10416090;28;20200;-62
2022/05/06 17:15:07;;;;;;;7.00;2.90;;;;;;;18.52;49.37;96944.34;10415707;28;20303;-61
2022/05/06 17:20:08;;;;;;;5.90;3.40;;;;;;;18.59;49.37;96948.84;10415364;28;20693;-62
2022/05/06 17:25:09;;;;;;;7.30;3.60;;;;;;;18.30;49.61;96945.50;10415370;28;20200;-61
2022/05/06 17:30:10;;;;;;;5.13;1.70;;;;;;;18.15;50.03;96959.75;10415211;28;20204;-62
2022/05/06 17:35:11;;;;;;;4.28;2.28;;;;;;;17.77;50.17;96948.75;10414950;28;20180;-62
2022/05/06 17:40:11;;;;;;;3.85;1.60;;;;;;;17.84;51.44;96978.75;10414754;28;20645;-62
2022/05/06 17:45:14;;;;;;;4.03;2.20;;;;;;;17.64;51.47;96983.91;10414634;28;20738;-62
2022/05/06 17:50:18;;;;;;;6.30;2.80;;;;;;;17.49;52.69;97015.84;10413474;28;20228;-60
2022/05/06 17:55:21;;;;;;;4.57;2.08;;;;;;;17.14;53.83;97030.84;10413718;28;20188;-61
2022/05/06 18:05:40;;;;;;;5.45;1.92;;;;;;;16.62;55.66;97073.22;10413061;28;20188;-60
2022/05/06 18:10:42;;;;;;;4.65;2.08;;;;;;;16.55;54.94;97061.72;10412276;28;20687;-59
2022/05/06 18:15:42;;;;;;;2.83;1.50;;;;;;;16.32;55.67;97070.59;10412725;28;20568;-60
2022/05/06 18:20:43;;;;;;;5.53;2.58;;;;;;;16.18;55.97;97080.19;10412943;28;20226;-61
2022/05/06 18:25:43;;;;;;;4.07;2.83;;;;;;;16.00;57.84;97100.88;10412453;28;20196;-57
2022/05/06 18:30:43;;;;;;;9.13;3.03;;;;;;;15.73;58.20;97115.47;10412149;28;20687;-61
2022/05/06 18:35:45;;;;;;;6.00;3.28;;;;;;;15.54;58.38;97127.38;10411902;28;20584;-59
2022/05/06 18:40:45;;;;;;;6.18;3.47;;;;;;;15.39;60.30;97172.19;10408788;28;20224;-61
2022/05/06 18:45:46;;;;;;;6.88;3.10;;;;;;;14.88;61.70;97181.38;10409086;28;20655;-59
2022/05/06 18:50:47;;;;;;;5.53;2.33;;;;;;;14.07;67.15;97292.09;10408239;28;20224;-60
2022/05/06 18:55:48;;;;;;;3.88;1.67;;;;;;;13.45;68.85;97294.28;10408631;28;20684;-58
2022/05/06 19:00:48;;;;;;;2.75;2.35;;;;;;;13.11;70.91;97288.06;10409504;28;20374;-61
2022/05/06 19:05:49;;;;;;;3.03;2.30;;;;;;;13.06;72.46;97285.06;10410726;28;20204;-60
2022/05/06 19:10:49;;;;;;;5.03;3.33;;;;;;;12.53;75.09;97278.25;10410941;28;20302;-60
2022/05/06 19:15:49;;;;;;;7.35;2.58;;;;;;;12.61;75.30;97258.06;10410402;28;20724;-60
2022/05/06 19:20:50;;;;;;;4.28;2.28;;;;;;;12.40;77.55;97258.41;10410267;28;20228;-59
2022/05/06 19:25:50;;;;;;;3.58;2.75;;;;;;;12.07;80.38;97260.81;10410141;28;20193;-59
2022/05/06 19:30:50;;;;;;;7.10;3.10;;;;;;;11.83;82.39;97264.03;10409981;28;20213;-60
2022/05/06 19:35:51;;;;;;;7.28;3.97;;;;;;;11.39;85.76;97267.41;10409775;28;20230;-58
2022/05/06 19:40:51;;;;;;;7.90;5.00;;;;;;;11.11;89.04;97266.59;10409471;28;20323;-61
2022/05/06 19:45:52;;;;;;;6.87;3.70;;;;;;;10.95;91.56;97261.97;10409807;28;20201;-60
2022/05/06 19:50:53;;;;;;;6.33;3.57;;;;;;;10.65;94.54;97265.69;10409394;28;20308;-60
2022/05/06 19:55:54;;;;;;;5.80;3.70;;;;;;;10.53;97.37;97268.50;10409271;28;20558;-57
2022/05/06 20:00:55;;;;;;;5.13;3.73;;;;;;;10.41;98.58;97280.06;10408582;28;20236;-59
2022/05/06 20:05:56;;;;;;;8.97;3.87;;;;;;;10.18;100.00;97279.53;10408873;28;20231;-56
2022/05/06 20:10:56;;;;;;;7.30;4.00;;;;;;;10.04;100.00;97285.22;10417462;28;20213;-54
2022/05/06 20:15:58;;;;;;;4.83;2.93;;;;;;;9.99;100.00;97291.69;10406896;28;20192;-57
2022/05/06 20:20:59;;;;;;;5.80;3.43;;;;;;;9.92;100.00;97287.13;10405074;28;20217;-55
2022/05/06 20:25:59;;;;;;;6.70;3.80;;;;;;;9.77;100.00;97282.31;10407155;28;20342;-54
2022/05/06 20:30:59;;;;;;;3.77;3.47;;;;;;;9.62;100.00;97289.75;10407728;28;20220;-54
2022/05/06 20:36:00;;;;;;;6.43;3.27;;;;;;;9.53;100.00;97287.94;10406908;28;20246;-58
2022/05/06 20:41:00;;;;;;;5.27;3.53;;;;;;;9.41;100.00;97295.06;10407319;28;20323;-56
2022/05/06 20:46:01;;;;;;;7.63;3.13;;;;;;;9.28;100.00;97295.34;10407322;28;20199;-57
2022/05/06 20:51:01;;;;;;;3.87;3.40;;;;;;;9.09;100.00;97298.69;10407084;28;20232;-57
2022/05/06 20:56:02;;;;;;;5.20;3.90;;;;;;;9.03;100.00;97301.84;10407194;28;20857;-58
2022/05/06 21:01:03;;;;;;;7.03;3.57;;;;;;;8.86;100.00;97298.06;10406976;28;20224;-57
2022/05/06 21:06:03;;;;;;;6.53;3.30;;;;;;;8.74;100.00;97294.75;10406353;28;20266;-54
2022/05/06 21:16:22;;;;;;;7.03;3.43;;;;;;;8.47;100.00;97287.44;10406931;28;20560;-56
2022/05/06 21:21:23;;;;;;;7.20;3.60;;;;;;;8.21;100.00;97287.00;10406838;28;20220;-56
2022/05/06 21:26:23;;;;;;;5.93;3.73;;;;;;;8.10;100.00;97281.81;10406811;28;20197;-57
2022/05/06 21:31:23;;;;;;;7.53;3.73;;;;;;;7.98;100.00;97292.31;10406749;28;20209;-56
2022/05/06 21:36:24;;;;;;;7.43;3.47;;;;;;;7.92;100.00;97292.81;10407410;28;20216;-54
2022/05/06 21:41:26;;;;;;;5.27;3.60;;;;;;;7.90;100.00;97284.31;10406834;28;20323;-55
2022/05/06 21:46:26;;;;;;;2.97;2.67;;;;;;;7.78;100.00;97293.09;10412226;28;20193;-58
2022/05/06 21:51:28;;;;;;;4.10;3.40;;;;;;;7.61;100.00;97292.69;10414314;28;20236;-60
2022/05/06 21:56:29;;;;;;;3.77;3.27;;;;;;;7.45;100.00;97294.88;10414434;28;20193;-59
2022/05/06 22:01:29;;;;;;;3.50;3.20;;;;;;;7.32;100.00;97300.25;10414372;28;20224;-55
2022/05/06 22:06:29;;;;;;;7.63;3.23;;;;;;;7.34;100.00;97287.09;10413423;28;20195;-58
2022/05/06 22:11:30;;;;;;;6.10;3.60;;;;;;;7.24;100.00;97292.19;10413700;28;20208;-54
2022/05/06 22:16:31;;;;;;;5.03;3.90;;;;;;;7.20;100.00;97290.75;10413381;28;20193;-54
2022/05/06 22:21:31;;;;;;;11.43;3.83;;;;;;;7.06;100.00;97284.88;10413296;28;20339;-55
2022/05/06 22:26:31;;;;;;;5.93;4.23;;;;;;;6.79;100.00;97273.03;10413065;28;20192;-57
2022/05/06 22:31:32;;;;;;;12.07;3.90;;;;;;;6.79;100.00;97280.03;10412961;28;20211;-54
2022/05/06 22:36:32;;;;;;;6.73;3.43;;;;;;;6.73;100.00;97273.53;10412675;28;20195;-54
2022/05/06 22:46:52;;;;;;;3.93;3.13;;;;;;;6.70;100.00;97270.34;10412127;28;20197;-54
2022/05/06 22:51:52;;;;;;;4.53;3.30;;;;;;;6.49;100.00;97272.81;10414729;22;20331;-56
2022/05/06 22:56:52;;;;;;;7.20;4.53;;;;;;;6.35;100.00;97272.06;10369682;28;20660;-52
2022/05/06 23:01:53;;;;;;;5.53;3.83;;;;;;;6.28;100.00;97273.50;10370528;28;20718;-56
2022/05/06 23:06:53;;;;;;;8.57;4.03;;;;;;;6.23;100.00;97273.00;10369743;28;20727;-55
2022/05/06 23:11:54;;;;;;;4.97;3.10;;;;;;;6.25;100.00;97276.34;10370082;28;20707;-56
2022/05/06 23:16:56;;;;;;;7.83;3.80;;;;;;;6.09;100.00;97261.03;10369647;28;20623;-53
2022/05/06 23:21:57;;;;;;;4.13;3.73;;;;;;;6.08;100.00;97269.78;10376107;28;20233;-58
2022/05/06 23:26:57;;;;;;;6.47;3.83;;;;;;;5.95;100.00;97262.03;10379215;28;20227;-56
2022/05/06 23:31:57;;;;;;;9.53;3.70;;;;;;;5.93;100.00;97263.09;10369052;28;20205;-57
2022/05/06 23:42:17;;;;;;;7.43;3.27;;;;;;;5.85;100.00;97271.44;10368476;28;20397;-61
2022/05/06 23:47:17;;;;;;;7.73;3.40;;;;;;;5.79;100.00;97257.16;10368792;28;20627;-58
2022/05/06 23:52:18;;;;;;;5.80;3.37;;;;;;;5.75;100.00;97255.69;10368098;28;20793;-55
2022/05/06 23:57:22;;;;;;;5.37;3.37;;;;;;;5.60;100.00;97252.44;10368423;28;20835;-53
